sensor_id;sensor_type;location;lat;lon;timestamp;P1;durP1;ratioP1;P2;durP2;ratioP2
10248;SDS011;5169;50.560;9.714;2022-09-09T00:01:52;5.50;;;1.33;;
10248;SDS011;5169;50.560;9.714;2022-09-09T00:04:28;2.03;;;1.20;;
10248;SDS011;5169;50.560;9.714;2022-09-09T00:09:25;4.00;;;1.10;;
10248;SDS011;5169;50.560;9.714;2022-09-09T00:14:40;3.27;;;1.13;;
10248;SDS011;5169;50.560;9.714;2022-09-09T00:17:55;4.27;;;1.30;;
10248;SDS011;5169;50.560;9.714;2022-09-09T00:28:25;1.60;;;1.10;;
10248;SDS011;5169;50.560;9.714;2022-09-09T00:30:52;2.50;;;1.20;;
10248;SDS011;5169;50.560;9.714;2022-09-09T00:33:19;2.43;;;1.10;;
10248;SDS011;5169;50.560;9.714;2022-09-09T00:38:15;4.10;;;1.20;;
10248;SDS011;5169;50.560;9.714;2022-09-09T00:41:31;4.27;;;2.07;;
10248;SDS011;5169;50.560;9.714;2022-09-09T00:43:43;3.83;;;1.00;;
10248;SDS011;5169;50.560;9.714;2022-09-09T00:49:08;2.93;;;1.10;;
10248;SDS011;5169;50.560;9.714;2022-09-09T00:51:45;2.47;;;1.10;;
10248;SDS011;5169;50.560;9.714;2022-09-09T01:02:20;2.47;;;1.20;;
10248;SDS011;5169;50.560;9.714;2022-09-09T01:04:57;2.87;;;1.00;;
10248;SDS011;5169;50.560;9.714;2022-09-09T01:07:30;2.43;;;1.20;;
10248;SDS011;5169;50.560;9.714;2022-09-09T01:09:57;1.63;;;1.00;;
10248;SDS011;5169;50.560;9.714;2022-09-09T01:12:39;1.47;;;1.00;;
10248;SDS011;5169;50.560;9.714;2022-09-09T01:17:57;2.50;;;0.93;;
10248;SDS011;5169;50.560;9.714;2022-09-09T01:20:31;1.50;;;1.00;;
10248;SDS011;5169;50.560;9.714;2022-09-09T01:28:54;3.17;;;1.33;;
10248;SDS011;5169;50.560;9.714;2022-09-09T01:31:23;1.87;;;1.03;;
10248;SDS011;5169;50.560;9.714;2022-09-09T01:33:58;3.57;;;1.00;;
10248;SDS011;5169;50.560;9.714;2022-09-09T01:36:35;3.47;;;0.93;;
10248;SDS011;5169;50.560;9.714;2022-09-09T01:39:12;5.37;;;1.00;;
10248;SDS011;5169;50.560;9.714;2022-09-09T01:41:38;2.30;;;0.90;;
10248;SDS011;5169;50.560;9.714;2022-09-09T01:44:04;1.93;;;1.00;;
10248;SDS011;5169;50.560;9.714;2022-09-09T01:46:32;2.50;;;0.80;;
10248;SDS011;5169;50.560;9.714;2022-09-09T01:48:58;1.77;;;0.90;;
10248;SDS011;5169;50.560;9.714;2022-09-09T01:51:28;3.23;;;1.10;;
10248;SDS011;5169;50.560;9.714;2022-09-09T01:53:56;2.00;;;1.10;;
10248;SDS011;5169;50.560;9.714;2022-09-09T02:07:14;4.57;;;1.40;;
10248;SDS011;5169;50.560;9.714;2022-09-09T02:09:57;3.30;;;1.20;;
10248;SDS011;5169;50.560;9.714;2022-09-09T02:12:33;3.73;;;1.30;;
10248;SDS011;5169;50.560;9.714;2022-09-09T02:15:02;3.13;;;1.00;;
10248;SDS011;5169;50.560;9.714;2022-09-09T02:17:33;2.23;;;1.00;;
10248;SDS011;5169;50.560;9.714;2022-09-09T02:20:08;3.03;;;1.10;;
10248;SDS011;5169;50.560;9.714;2022-09-09T02:22:38;3.33;;;1.20;;
10248;SDS011;5169;50.560;9.714;2022-09-09T02:25:07;3.27;;;1.13;;
10248;SDS011;5169;50.560;9.714;2022-09-09T02:27:35;2.83;;;0.90;;
10248;SDS011;5169;50.560;9.714;2022-09-09T02:30:03;2.80;;;1.30;;
10248;SDS011;5169;50.560;9.714;2022-09-09T02:32:30;2.37;;;1.30;;
10248;SDS011;5169;50.560;9.714;2022-09-09T02:35:05;2.87;;;1.23;;
10248;SDS011;5169;50.560;9.714;2022-09-09T02:37:38;2.53;;;1.07;;
10248;SDS011;5169;50.560;9.714;2022-09-09T02:40:05;2.30;;;1.00;;
10248;SDS011;5169;50.560;9.714;2022-09-09T02:42:42;4.40;;;1.50;;
10248;SDS011;5169;50.560;9.714;2022-09-09T02:45:12;3.20;;;1.20;;
10248;SDS011;5169;50.560;9.714;2022-09-09T02:50:22;3.43;;;1.37;;
10248;SDS011;5169;50.560;9.714;2022-09-09T02:52:57;2.80;;;1.20;;
10248;SDS011;5169;50.560;9.714;2022-09-09T02:58:09;2.03;;;1.20;;
10248;SDS011;5169;50.560;9.714;2022-09-09T03:00:38;4.17;;;1.33;;
10248;SDS011;5169;50.560;9.714;2022-09-09T03:03:05;1.83;;;1.10;;
10248;SDS011;5169;50.560;9.714;2022-09-09T03:05:32;3.03;;;1.10;;
10248;SDS011;5169;50.560;9.714;2022-09-09T03:07:58;3.30;;;1.10;;
10248;SDS011;5169;50.560;9.714;2022-09-09T03:10:26;4.23;;;1.13;;
10248;SDS011;5169;50.560;9.714;2022-09-09T03:12:51;3.73;;;1.47;;
10248;SDS011;5169;50.560;9.714;2022-09-09T03:15:17;5.10;;;1.20;;
10248;SDS011;5169;50.560;9.714;2022-09-09T03:17:43;3.93;;;1.13;;
10248;SDS011;5169;50.560;9.714;2022-09-09T03:20:08;4.37;;;1.20;;
10248;SDS011;5169;50.560;9.714;2022-09-09T03:22:37;3.60;;;1.30;;
10248;SDS011;5169;50.560;9.714;2022-09-09T03:25:05;2.67;;;1.13;;
10248;SDS011;5169;50.560;9.714;2022-09-09T03:27:31;3.07;;;1.00;;
10248;SDS011;5169;50.560;9.714;2022-09-09T03:29:57;3.37;;;1.10;;
10248;SDS011;5169;50.560;9.714;2022-09-09T03:32:28;2.93;;;1.20;;
10248;SDS011;5169;50.560;9.714;2022-09-09T03:34:54;3.97;;;1.20;;
10248;SDS011;5169;50.560;9.714;2022-09-09T03:37:22;3.03;;;1.63;;
10248;SDS011;5169;50.560;9.714;2022-09-09T03:39:48;2.17;;;1.27;;
10248;SDS011;5169;50.560;9.714;2022-09-09T03:42:14;2.97;;;1.17;;
10248;SDS011;5169;50.560;9.714;2022-09-09T03:44:43;2.90;;;1.20;;
10248;SDS011;5169;50.560;9.714;2022-09-09T03:47:15;2.23;;;0.93;;
10248;SDS011;5169;50.560;9.714;2022-09-09T03:49:49;3.23;;;1.00;;
10248;SDS011;5169;50.560;9.714;2022-09-09T03:52:16;2.07;;;1.13;;
10248;SDS011;5169;50.560;9.714;2022-09-09T03:54:43;1.87;;;1.00;;
10248;SDS011;5169;50.560;9.714;2022-09-09T03:57:11;3.90;;;1.33;;
10248;SDS011;5169;50.560;9.714;2022-09-09T03:59:41;3.57;;;1.00;;
10248;SDS011;5169;50.560;9.714;2022-09-09T04:02:06;3.73;;;1.10;;
10248;SDS011;5169;50.560;9.714;2022-09-09T04:04:32;4.17;;;1.00;;
10248;SDS011;5169;50.560;9.714;2022-09-09T04:06:58;3.30;;;1.13;;
10248;SDS011;5169;50.560;9.714;2022-09-09T04:09:23;3.43;;;1.20;;
10248;SDS011;5169;50.560;9.714;2022-09-09T04:11:51;3.00;;;1.00;;
10248;SDS011;5169;50.560;9.714;2022-09-09T04:14:18;5.87;;;1.43;;
10248;SDS011;5169;50.560;9.714;2022-09-09T04:16:44;6.40;;;1.20;;
10248;SDS011;5169;50.560;9.714;2022-09-09T04:19:11;1.77;;;0.97;;
10248;SDS011;5169;50.560;9.714;2022-09-09T04:21:39;2.80;;;1.20;;
10248;SDS011;5169;50.560;9.714;2022-09-09T04:24:06;4.10;;;1.30;;
10248;SDS011;5169;50.560;9.714;2022-09-09T04:26:33;5.97;;;1.27;;
10248;SDS011;5169;50.560;9.714;2022-09-09T04:28:59;5.77;;;1.20;;
10248;SDS011;5169;50.560;9.714;2022-09-09T04:31:25;3.77;;;1.20;;
10248;SDS011;5169;50.560;9.714;2022-09-09T04:33:50;3.53;;;1.00;;
10248;SDS011;5169;50.560;9.714;2022-09-09T04:36:17;4.97;;;1.27;;
10248;SDS011;5169;50.560;9.714;2022-09-09T04:38:46;4.13;;;1.20;;
10248;SDS011;5169;50.560;9.714;2022-09-09T04:41:14;4.63;;;1.60;;
10248;SDS011;5169;50.560;9.714;2022-09-09T04:43:41;7.17;;;1.40;;
10248;SDS011;5169;50.560;9.714;2022-09-09T04:46:07;2.97;;;1.40;;
10248;SDS011;5169;50.560;9.714;2022-09-09T04:48:33;2.33;;;1.10;;
10248;SDS011;5169;50.560;9.714;2022-09-09T04:51:03;3.90;;;1.30;;
10248;SDS011;5169;50.560;9.714;2022-09-09T04:53:30;3.87;;;1.20;;
10248;SDS011;5169;50.560;9.714;2022-09-09T04:58:32;4.87;;;1.23;;
10248;SDS011;5169;50.560;9.714;2022-09-09T05:03:34;4.13;;;1.20;;
10248;SDS011;5169;50.560;9.714;2022-09-09T05:06:04;2.37;;;1.03;;
10248;SDS011;5169;50.560;9.714;2022-09-09T05:08:30;3.73;;;1.30;;
10248;SDS011;5169;50.560;9.714;2022-09-09T05:10:56;3.70;;;1.27;;
10248;SDS011;5169;50.560;9.714;2022-09-09T05:13:24;4.13;;;1.63;;
10248;SDS011;5169;50.560;9.714;2022-09-09T05:15:51;4.23;;;1.47;;
10248;SDS011;5169;50.560;9.714;2022-09-09T05:18:18;2.53;;;1.00;;
10248;SDS011;5169;50.560;9.714;2022-09-09T05:20:43;5.07;;;1.37;;
10248;SDS011;5169;50.560;9.714;2022-09-09T05:23:09;2.53;;;1.23;;
10248;SDS011;5169;50.560;9.714;2022-09-09T05:25:40;4.53;;;1.60;;
10248;SDS011;5169;50.560;9.714;2022-09-09T05:28:06;3.20;;;1.30;;
10248;SDS011;5169;50.560;9.714;2022-09-09T05:30:33;4.97;;;1.20;;
10248;SDS011;5169;50.560;9.714;2022-09-09T05:32:59;6.60;;;1.50;;
10248;SDS011;5169;50.560;9.714;2022-09-09T05:35:25;3.93;;;1.60;;
10248;SDS011;5169;50.560;9.714;2022-09-09T05:37:52;3.53;;;1.20;;
10248;SDS011;5169;50.560;9.714;2022-09-09T05:40:23;5.67;;;1.20;;
10248;SDS011;5169;50.560;9.714;2022-09-09T05:42:51;3.57;;;1.20;;
10248;SDS011;5169;50.560;9.714;2022-09-09T05:45:18;3.60;;;1.23;;
10248;SDS011;5169;50.560;9.714;2022-09-09T05:47:50;5.70;;;1.43;;
10248;SDS011;5169;50.560;9.714;2022-09-09T05:50:18;3.67;;;1.30;;
10248;SDS011;5169;50.560;9.714;2022-09-09T05:52:44;3.10;;;1.40;;
10248;SDS011;5169;50.560;9.714;2022-09-09T05:55:09;3.60;;;1.30;;
10248;SDS011;5169;50.560;9.714;2022-09-09T05:57:35;4.17;;;1.60;;
10248;SDS011;5169;50.560;9.714;2022-09-09T06:00:01;3.50;;;1.13;;
10248;SDS011;5169;50.560;9.714;2022-09-09T06:02:27;4.57;;;1.33;;
10248;SDS011;5169;50.560;9.714;2022-09-09T06:04:56;2.57;;;1.40;;
10248;SDS011;5169;50.560;9.714;2022-09-09T06:07:24;4.53;;;1.43;;
10248;SDS011;5169;50.560;9.714;2022-09-09T06:09:49;3.40;;;1.23;;
10248;SDS011;5169;50.560;9.714;2022-09-09T06:12:16;4.53;;;1.57;;
10248;SDS011;5169;50.560;9.714;2022-09-09T06:14:42;3.17;;;1.47;;
10248;SDS011;5169;50.560;9.714;2022-09-09T06:17:11;2.73;;;1.20;;
10248;SDS011;5169;50.560;9.714;2022-09-09T06:19:39;3.10;;;1.13;;
10248;SDS011;5169;50.560;9.714;2022-09-09T06:22:04;3.33;;;1.23;;
10248;SDS011;5169;50.560;9.714;2022-09-09T06:24:30;6.33;;;1.40;;
10248;SDS011;5169;50.560;9.714;2022-09-09T06:26:56;3.83;;;1.23;;
10248;SDS011;5169;50.560;9.714;2022-09-09T06:29:22;3.20;;;1.20;;
10248;SDS011;5169;50.560;9.714;2022-09-09T06:31:50;3.80;;;1.27;;
10248;SDS011;5169;50.560;9.714;2022-09-09T06:34:16;5.10;;;1.40;;
10248;SDS011;5169;50.560;9.714;2022-09-09T06:36:44;3.03;;;1.20;;
10248;SDS011;5169;50.560;9.714;2022-09-09T06:39:10;3.37;;;1.33;;
10248;SDS011;5169;50.560;9.714;2022-09-09T06:41:40;3.83;;;1.20;;
10248;SDS011;5169;50.560;9.714;2022-09-09T06:44:07;2.60;;;1.07;;
10248;SDS011;5169;50.560;9.714;2022-09-09T06:46:40;2.97;;;1.13;;
10248;SDS011;5169;50.560;9.714;2022-09-09T06:49:05;3.97;;;1.20;;
10248;SDS011;5169;50.560;9.714;2022-09-09T06:51:36;3.93;;;1.20;;
10248;SDS011;5169;50.560;9.714;2022-09-09T06:54:07;2.23;;;1.40;;
10248;SDS011;5169;50.560;9.714;2022-09-09T06:56:34;2.73;;;1.40;;
10248;SDS011;5169;50.560;9.714;2022-09-09T06:59:03;4.77;;;1.50;;
10248;SDS011;5169;50.560;9.714;2022-09-09T07:01:34;6.13;;;1.47;;
10248;SDS011;5169;50.560;9.714;2022-09-09T07:04:07;3.00;;;1.27;;
10248;SDS011;5169;50.560;9.714;2022-09-09T07:06:34;8.73;;;1.37;;
10248;SDS011;5169;50.560;9.714;2022-09-09T07:09:06;2.93;;;1.10;;
10248;SDS011;5169;50.560;9.714;2022-09-09T07:11:37;5.03;;;2.20;;
10248;SDS011;5169;50.560;9.714;2022-09-09T07:14:11;3.30;;;1.27;;
10248;SDS011;5169;50.560;9.714;2022-09-09T07:16:38;4.33;;;1.60;;
10248;SDS011;5169;50.560;9.714;2022-09-09T07:19:05;2.93;;;1.40;;
10248;SDS011;5169;50.560;9.714;2022-09-09T07:21:31;4.10;;;1.40;;
10248;SDS011;5169;50.560;9.714;2022-09-09T07:23:57;3.67;;;1.17;;
10248;SDS011;5169;50.560;9.714;2022-09-09T07:32:35;5.70;;;1.23;;
10248;SDS011;5169;50.560;9.714;2022-09-09T07:35:04;6.23;;;1.43;;
10248;SDS011;5169;50.560;9.714;2022-09-09T07:37:30;2.67;;;1.20;;
10248;SDS011;5169;50.560;9.714;2022-09-09T07:39:56;2.27;;;1.10;;
10248;SDS011;5169;50.560;9.714;2022-09-09T07:42:21;3.43;;;1.37;;
10248;SDS011;5169;50.560;9.714;2022-09-09T07:44:47;4.03;;;1.77;;
10248;SDS011;5169;50.560;9.714;2022-09-09T07:47:13;4.40;;;1.40;;
10248;SDS011;5169;50.560;9.714;2022-09-09T07:49:38;4.60;;;1.20;;
10248;SDS011;5169;50.560;9.714;2022-09-09T07:52:04;3.23;;;1.27;;
10248;SDS011;5169;50.560;9.714;2022-09-09T07:54:30;6.40;;;1.70;;
10248;SDS011;5169;50.560;9.714;2022-09-09T07:56:57;4.30;;;1.53;;
10248;SDS011;5169;50.560;9.714;2022-09-09T07:59:25;4.83;;;1.80;;
10248;SDS011;5169;50.560;9.714;2022-09-09T08:01:51;5.10;;;1.43;;
10248;SDS011;5169;50.560;9.714;2022-09-09T08:04:20;4.43;;;1.50;;
10248;SDS011;5169;50.560;9.714;2022-09-09T08:09:13;6.03;;;1.50;;
10248;SDS011;5169;50.560;9.714;2022-09-09T08:11:39;3.37;;;1.20;;
10248;SDS011;5169;50.560;9.714;2022-09-09T08:14:06;4.73;;;1.20;;
10248;SDS011;5169;50.560;9.714;2022-09-09T08:16:40;3.13;;;1.30;;
10248;SDS011;5169;50.560;9.714;2022-09-09T08:19:10;6.43;;;1.30;;
10248;SDS011;5169;50.560;9.714;2022-09-09T08:21:37;3.10;;;1.50;;
10248;SDS011;5169;50.560;9.714;2022-09-09T08:24:05;3.37;;;1.37;;
10248;SDS011;5169;50.560;9.714;2022-09-09T08:26:33;2.80;;;1.33;;
10248;SDS011;5169;50.560;9.714;2022-09-09T08:29:00;3.43;;;1.40;;
10248;SDS011;5169;50.560;9.714;2022-09-09T08:33:55;4.93;;;1.47;;
10248;SDS011;5169;50.560;9.714;2022-09-09T08:36:23;2.57;;;1.30;;
10248;SDS011;5169;50.560;9.714;2022-09-09T08:38:54;2.53;;;1.37;;
10248;SDS011;5169;50.560;9.714;2022-09-09T08:49:53;4.23;;;1.50;;
10248;SDS011;5169;50.560;9.714;2022-09-09T09:11:16;5.47;;;1.50;;
10248;SDS011;5169;50.560;9.714;2022-09-09T09:19:08;3.87;;;1.40;;
10248;SDS011;5169;50.560;9.714;2022-09-09T09:21:40;6.53;;;1.60;;
10248;SDS011;5169;50.560;9.714;2022-09-09T09:24:34;4.43;;;1.60;;
10248;SDS011;5169;50.560;9.714;2022-09-09T09:27:18;5.67;;;1.60;;
10248;SDS011;5169;50.560;9.714;2022-09-09T09:29:58;4.73;;;1.70;;
10248;SDS011;5169;50.560;9.714;2022-09-09T09:32:30;5.27;;;1.60;;
10248;SDS011;5169;50.560;9.714;2022-09-09T09:34:59;7.53;;;1.70;;
10248;SDS011;5169;50.560;9.714;2022-09-09T09:37:30;3.83;;;1.40;;
10248;SDS011;5169;50.560;9.714;2022-09-09T09:40:09;5.73;;;1.67;;
10248;SDS011;5169;50.560;9.714;2022-09-09T09:42:36;4.17;;;1.70;;
10248;SDS011;5169;50.560;9.714;2022-09-09T09:45:07;5.27;;;1.77;;
10248;SDS011;5169;50.560;9.714;2022-09-09T09:47:39;5.83;;;1.77;;
10248;SDS011;5169;50.560;9.714;2022-09-09T09:50:16;5.23;;;1.57;;
10248;SDS011;5169;50.560;9.714;2022-09-09T09:52:51;8.20;;;1.67;;
10248;SDS011;5169;50.560;9.714;2022-09-09T09:55:23;4.43;;;1.90;;
10248;SDS011;5169;50.560;9.714;2022-09-09T09:57:49;7.17;;;1.80;;
10248;SDS011;5169;50.560;9.714;2022-09-09T10:00:16;6.47;;;1.70;;
10248;SDS011;5169;50.560;9.714;2022-09-09T10:02:44;4.20;;;1.50;;
10248;SDS011;5169;50.560;9.714;2022-09-09T10:05:15;5.17;;;1.37;;
10248;SDS011;5169;50.560;9.714;2022-09-09T10:07:43;5.47;;;1.47;;
10248;SDS011;5169;50.560;9.714;2022-09-09T10:10:13;4.90;;;1.90;;
10248;SDS011;5169;50.560;9.714;2022-09-09T10:18:17;3.87;;;1.60;;
10248;SDS011;5169;50.560;9.714;2022-09-09T10:40:20;4.50;;;1.40;;
10248;SDS011;5169;50.560;9.714;2022-09-09T10:42:46;4.97;;;1.90;;
10248;SDS011;5169;50.560;9.714;2022-09-09T10:45:23;6.50;;;1.70;;
10248;SDS011;5169;50.560;9.714;2022-09-09T10:49:18;5.23;;;1.60;;
10248;SDS011;5169;50.560;9.714;2022-09-09T10:51:23;3.83;;;1.50;;
10248;SDS011;5169;50.560;9.714;2022-09-09T10:56:42;4.10;;;1.37;;
10248;SDS011;5169;50.560;9.714;2022-09-09T10:59:20;6.53;;;1.53;;
10248;SDS011;5169;50.560;9.714;2022-09-09T11:01:56;6.00;;;1.67;;
10248;SDS011;5169;50.560;9.714;2022-09-09T11:07:21;4.47;;;1.57;;
10248;SDS011;5169;50.560;9.714;2022-09-09T11:12:57;4.63;;;1.40;;
10248;SDS011;5169;50.560;9.714;2022-09-09T11:15:41;6.07;;;1.63;;
10248;SDS011;5169;50.560;9.714;2022-09-09T11:18:19;3.10;;;1.20;;
10248;SDS011;5169;50.560;9.714;2022-09-09T11:20:47;4.83;;;2.10;;
10248;SDS011;5169;50.560;9.714;2022-09-09T11:23:39;6.47;;;1.70;;
10248;SDS011;5169;50.560;9.714;2022-09-09T11:26:02;3.93;;;1.50;;
10248;SDS011;5169;50.560;9.714;2022-09-09T11:44:43;2.33;;;1.20;;
10248;SDS011;5169;50.560;9.714;2022-09-09T11:49:54;3.53;;;1.03;;
10248;SDS011;5169;50.560;9.714;2022-09-09T11:52:23;3.87;;;1.10;;
10248;SDS011;5169;50.560;9.714;2022-09-09T11:55:07;4.70;;;1.45;;
10248;SDS011;5169;50.560;9.714;2022-09-09T11:57:57;2.95;;;1.05;;
10248;SDS011;5169;50.560;9.714;2022-09-09T12:00:30;4.05;;;1.10;;
10248;SDS011;5169;50.560;9.714;2022-09-09T12:03:02;3.65;;;1.15;;
10248;SDS011;5169;50.560;9.714;2022-09-09T12:05:38;2.92;;;1.10;;
10248;SDS011;5169;50.560;9.714;2022-09-09T12:08:16;4.63;;;1.50;;
10248;SDS011;5169;50.560;9.714;2022-09-09T12:10:54;6.43;;;1.20;;
10248;SDS011;5169;50.560;9.714;2022-09-09T12:13:22;2.07;;;0.90;;
10248;SDS011;5169;50.560;9.714;2022-09-09T12:15:50;2.47;;;1.00;;
10248;SDS011;5169;50.560;9.714;2022-09-09T12:18:35;3.87;;;1.37;;
10248;SDS011;5169;50.560;9.714;2022-09-09T12:24:10;3.70;;;1.10;;
10248;SDS011;5169;50.560;9.714;2022-09-09T12:26:46;3.40;;;1.10;;
10248;SDS011;5169;50.560;9.714;2022-09-09T12:32:27;3.42;;;1.10;;
10248;SDS011;5169;50.560;9.714;2022-09-09T12:34:55;1.77;;;0.90;;
10248;SDS011;5169;50.560;9.714;2022-09-09T12:40:30;2.28;;;0.90;;
10248;SDS011;5169;50.560;9.714;2022-09-09T12:43:00;4.95;;;1.00;;
10248;SDS011;5169;50.560;9.714;2022-09-09T12:45:27;1.83;;;0.80;;
10248;SDS011;5169;50.560;9.714;2022-09-09T12:50:37;2.00;;;0.70;;
10248;SDS011;5169;50.560;9.714;2022-09-09T12:53:12;2.87;;;0.90;;
10248;SDS011;5169;50.560;9.714;2022-09-09T12:55:52;2.53;;;1.00;;
10248;SDS011;5169;50.560;9.714;2022-09-09T12:58:24;2.23;;;1.27;;
10248;SDS011;5169;50.560;9.714;2022-09-09T13:01:00;1.40;;;0.70;;
10248;SDS011;5169;50.560;9.714;2022-09-09T13:03:30;1.53;;;0.83;;
10248;SDS011;5169;50.560;9.714;2022-09-09T13:06:13;2.97;;;0.90;;
10248;SDS011;5169;50.560;9.714;2022-09-09T13:08:52;2.43;;;1.00;;
10248;SDS011;5169;50.560;9.714;2022-09-09T13:11:20;5.33;;;0.90;;
10248;SDS011;5169;50.560;9.714;2022-09-09T13:14:01;2.50;;;1.00;;
10248;SDS011;5169;50.560;9.714;2022-09-09T13:16:31;2.03;;;0.70;;
10248;SDS011;5169;50.560;9.714;2022-09-09T13:19:06;1.70;;;0.67;;
10248;SDS011;5169;50.560;9.714;2022-09-09T13:21:36;3.53;;;0.80;;
10248;SDS011;5169;50.560;9.714;2022-09-09T13:24:07;1.40;;;0.70;;
10248;SDS011;5169;50.560;9.714;2022-09-09T13:27:02;2.00;;;0.77;;
10248;SDS011;5169;50.560;9.714;2022-09-09T13:29:31;3.13;;;0.97;;
10248;SDS011;5169;50.560;9.714;2022-09-09T13:32:06;3.80;;;0.80;;
10248;SDS011;5169;50.560;9.714;2022-09-09T13:34:50;3.07;;;1.03;;
10248;SDS011;5169;50.560;9.714;2022-09-09T13:37:26;3.33;;;1.20;;
10248;SDS011;5169;50.560;9.714;2022-09-09T13:39:59;2.73;;;1.13;;
10248;SDS011;5169;50.560;9.714;2022-09-09T13:42:27;3.23;;;1.10;;
10248;SDS011;5169;50.560;9.714;2022-09-09T13:44:56;4.20;;;1.20;;
10248;SDS011;5169;50.560;9.714;2022-09-09T13:47:43;4.37;;;1.10;;
10248;SDS011;5169;50.560;9.714;2022-09-09T13:50:18;5.13;;;0.90;;
10248;SDS011;5169;50.560;9.714;2022-09-09T13:52:45;3.93;;;1.13;;
10248;SDS011;5169;50.560;9.714;2022-09-09T13:55:12;2.63;;;0.93;;
10248;SDS011;5169;50.560;9.714;2022-09-09T13:57:38;3.70;;;1.03;;
10248;SDS011;5169;50.560;9.714;2022-09-09T14:00:04;4.17;;;0.97;;
10248;SDS011;5169;50.560;9.714;2022-09-09T14:02:33;4.40;;;1.10;;
10248;SDS011;5169;50.560;9.714;2022-09-09T14:05:03;4.03;;;1.17;;
10248;SDS011;5169;50.560;9.714;2022-09-09T14:07:29;5.73;;;1.00;;
10248;SDS011;5169;50.560;9.714;2022-09-09T14:09:55;3.60;;;1.20;;
10248;SDS011;5169;50.560;9.714;2022-09-09T14:12:25;3.57;;;1.00;;
10248;SDS011;5169;50.560;9.714;2022-09-09T14:14:55;2.13;;;1.10;;
10248;SDS011;5169;50.560;9.714;2022-09-09T14:17:20;3.93;;;1.03;;
10248;SDS011;5169;50.560;9.714;2022-09-09T14:19:47;3.33;;;1.07;;
10248;SDS011;5169;50.560;9.714;2022-09-09T14:22:13;3.23;;;0.70;;
10248;SDS011;5169;50.560;9.714;2022-09-09T14:24:41;5.27;;;1.00;;
10248;SDS011;5169;50.560;9.714;2022-09-09T14:27:06;3.53;;;0.93;;
10248;SDS011;5169;50.560;9.714;2022-09-09T14:29:32;3.53;;;1.00;;
10248;SDS011;5169;50.560;9.714;2022-09-09T14:31:58;4.50;;;1.00;;
10248;SDS011;5169;50.560;9.714;2022-09-09T14:34:26;4.97;;;1.17;;
10248;SDS011;5169;50.560;9.714;2022-09-09T14:36:52;2.80;;;1.00;;
10248;SDS011;5169;50.560;9.714;2022-09-09T14:39:20;3.73;;;1.03;;
10248;SDS011;5169;50.560;9.714;2022-09-09T14:41:46;6.23;;;1.00;;
10248;SDS011;5169;50.560;9.714;2022-09-09T14:44:12;3.67;;;1.10;;
10248;SDS011;5169;50.560;9.714;2022-09-09T14:46:37;3.73;;;1.10;;
10248;SDS011;5169;50.560;9.714;2022-09-09T14:49:03;3.30;;;1.20;;
10248;SDS011;5169;50.560;9.714;2022-09-09T14:51:29;2.90;;;1.10;;
10248;SDS011;5169;50.560;9.714;2022-09-09T14:53:56;3.20;;;1.03;;
10248;SDS011;5169;50.560;9.714;2022-09-09T14:56:27;2.70;;;0.97;;
10248;SDS011;5169;50.560;9.714;2022-09-09T14:58:58;3.43;;;1.17;;
10248;SDS011;5169;50.560;9.714;2022-09-09T15:01:25;2.50;;;1.00;;
10248;SDS011;5169;50.560;9.714;2022-09-09T15:03:55;4.70;;;1.03;;
10248;SDS011;5169;50.560;9.714;2022-09-09T15:06:26;3.40;;;1.03;;
10248;SDS011;5169;50.560;9.714;2022-09-09T15:08:54;3.10;;;0.90;;
10248;SDS011;5169;50.560;9.714;2022-09-09T15:11:25;2.00;;;0.90;;
10248;SDS011;5169;50.560;9.714;2022-09-09T15:13:53;2.27;;;0.90;;
10248;SDS011;5169;50.560;9.714;2022-09-09T15:16:19;3.60;;;0.90;;
10248;SDS011;5169;50.560;9.714;2022-09-09T15:18:49;3.47;;;0.80;;
10248;SDS011;5169;50.560;9.714;2022-09-09T15:21:18;1.93;;;1.00;;
10248;SDS011;5169;50.560;9.714;2022-09-09T15:23:45;3.47;;;0.93;;
10248;SDS011;5169;50.560;9.714;2022-09-09T15:26:12;2.87;;;1.07;;
10248;SDS011;5169;50.560;9.714;2022-09-09T15:28:43;1.30;;;0.80;;
10248;SDS011;5169;50.560;9.714;2022-09-09T15:31:23;2.70;;;0.90;;
10248;SDS011;5169;50.560;9.714;2022-09-09T15:33:57;3.27;;;0.93;;
10248;SDS011;5169;50.560;9.714;2022-09-09T15:36:32;4.23;;;0.90;;
10248;SDS011;5169;50.560;9.714;2022-09-09T15:39:07;1.87;;;0.70;;
10248;SDS011;5169;50.560;9.714;2022-09-09T15:41:37;2.13;;;0.97;;
10248;SDS011;5169;50.560;9.714;2022-09-09T15:44:04;3.17;;;0.70;;
10248;SDS011;5169;50.560;9.714;2022-09-09T15:49:12;1.43;;;0.90;;
10248;SDS011;5169;50.560;9.714;2022-09-09T15:51:51;2.13;;;1.10;;
10248;SDS011;5169;50.560;9.714;2022-09-09T15:54:31;2.00;;;1.10;;
10248;SDS011;5169;50.560;9.714;2022-09-09T15:57:04;3.63;;;1.00;;
10248;SDS011;5169;50.560;9.714;2022-09-09T15:59:33;2.23;;;1.00;;
10248;SDS011;5169;50.560;9.714;2022-09-09T16:01:59;3.07;;;1.00;;
10248;SDS011;5169;50.560;9.714;2022-09-09T16:04:26;2.80;;;0.90;;
10248;SDS011;5169;50.560;9.714;2022-09-09T16:07:01;2.87;;;0.87;;
10248;SDS011;5169;50.560;9.714;2022-09-09T16:09:32;2.50;;;0.80;;
10248;SDS011;5169;50.560;9.714;2022-09-09T16:11:58;3.23;;;1.00;;
10248;SDS011;5169;50.560;9.714;2022-09-09T16:14:31;2.30;;;1.03;;
10248;SDS011;5169;50.560;9.714;2022-09-09T16:17:00;1.77;;;0.93;;
10248;SDS011;5169;50.560;9.714;2022-09-09T16:19:27;2.87;;;1.00;;
10248;SDS011;5169;50.560;9.714;2022-09-09T16:21:55;3.30;;;1.10;;
10248;SDS011;5169;50.560;9.714;2022-09-09T16:24:21;1.90;;;0.90;;
10248;SDS011;5169;50.560;9.714;2022-09-09T16:26:49;3.17;;;1.00;;
10248;SDS011;5169;50.560;9.714;2022-09-09T16:29:17;2.73;;;1.40;;
10248;SDS011;5169;50.560;9.714;2022-09-09T16:31:48;2.17;;;0.80;;
10248;SDS011;5169;50.560;9.714;2022-09-09T16:34:15;4.73;;;0.87;;
10248;SDS011;5169;50.560;9.714;2022-09-09T16:36:42;3.80;;;0.90;;
10248;SDS011;5169;50.560;9.714;2022-09-09T16:39:12;3.00;;;1.20;;
10248;SDS011;5169;50.560;9.714;2022-09-09T16:41:45;4.07;;;1.10;;
10248;SDS011;5169;50.560;9.714;2022-09-09T16:44:13;2.03;;;1.03;;
10248;SDS011;5169;50.560;9.714;2022-09-09T16:46:44;3.63;;;1.20;;
10248;SDS011;5169;50.560;9.714;2022-09-09T16:49:14;4.17;;;0.90;;
10248;SDS011;5169;50.560;9.714;2022-09-09T16:51:43;2.20;;;1.13;;
10248;SDS011;5169;50.560;9.714;2022-09-09T16:54:14;2.43;;;1.10;;
10248;SDS011;5169;50.560;9.714;2022-09-09T16:56:42;3.10;;;1.00;;
10248;SDS011;5169;50.560;9.714;2022-09-09T16:59:14;2.97;;;0.90;;
10248;SDS011;5169;50.560;9.714;2022-09-09T17:01:44;4.50;;;0.80;;
10248;SDS011;5169;50.560;9.714;2022-09-09T17:04:12;4.30;;;1.00;;
10248;SDS011;5169;50.560;9.714;2022-09-09T17:06:41;4.90;;;1.00;;
10248;SDS011;5169;50.560;9.714;2022-09-09T17:09:14;3.63;;;1.30;;
10248;SDS011;5169;50.560;9.714;2022-09-09T17:11:40;2.20;;;0.80;;
10248;SDS011;5169;50.560;9.714;2022-09-09T17:14:07;3.87;;;1.17;;
10248;SDS011;5169;50.560;9.714;2022-09-09T17:16:38;5.50;;;1.03;;
10248;SDS011;5169;50.560;9.714;2022-09-09T17:19:05;1.73;;;0.80;;
10248;SDS011;5169;50.560;9.714;2022-09-09T17:21:34;2.90;;;0.80;;
10248;SDS011;5169;50.560;9.714;2022-09-09T17:23:59;2.27;;;0.77;;
10248;SDS011;5169;50.560;9.714;2022-09-09T17:26:29;1.40;;;0.80;;
10248;SDS011;5169;50.560;9.714;2022-09-09T17:28:56;3.30;;;0.93;;
10248;SDS011;5169;50.560;9.714;2022-09-09T17:31:25;2.30;;;1.00;;
10248;SDS011;5169;50.560;9.714;2022-09-09T17:33:55;2.13;;;0.90;;
10248;SDS011;5169;50.560;9.714;2022-09-09T17:38:52;3.73;;;1.33;;
10248;SDS011;5169;50.560;9.714;2022-09-09T17:41:19;2.93;;;1.10;;
10248;SDS011;5169;50.560;9.714;2022-09-09T17:43:47;2.57;;;1.03;;
10248;SDS011;5169;50.560;9.714;2022-09-09T17:46:15;3.03;;;1.17;;
10248;SDS011;5169;50.560;9.714;2022-09-09T17:48:46;5.43;;;1.60;;
10248;SDS011;5169;50.560;9.714;2022-09-09T17:51:17;5.53;;;1.53;;
10248;SDS011;5169;50.560;9.714;2022-09-09T17:53:46;3.97;;;1.37;;
10248;SDS011;5169;50.560;9.714;2022-09-09T17:56:16;3.07;;;1.27;;
10248;SDS011;5169;50.560;9.714;2022-09-09T17:58:46;4.07;;;1.33;;
10248;SDS011;5169;50.560;9.714;2022-09-09T18:01:14;1.70;;;1.03;;
10248;SDS011;5169;50.560;9.714;2022-09-09T18:03:46;2.73;;;1.53;;
10248;SDS011;5169;50.560;9.714;2022-09-09T18:06:17;2.40;;;1.20;;
10248;SDS011;5169;50.560;9.714;2022-09-09T18:08:52;2.83;;;1.40;;